Time;durP1;ratioP1;P1;durP2;ratioP2;P2;SDS_P1;SDS_P2;PMS_P1;PMS_P2;Temp;Humidity;BMP_temperature;BMP_pressure;BME280_temperature;BME280_humidity;BME280_pressure;Samples;Min_cycle;Max_cycle;Signal;HPM_P1;HPM_P2
2022/02/27 00:00:44;;;;;;;18.30;5.40;;;3.60;99.90;;;;;;5074299;28;20040;-71
2022/02/27 00:03:09;;;;;;;16.90;5.03;;;3.50;99.90;;;;;;5074072;28;20044;-71
2022/02/27 00:05:35;;;;;;;17.63;5.43;;;3.50;99.90;;;;;;5074088;28;20052;-72
2022/02/27 00:08:00;;;;;;;16.98;5.20;;;3.50;99.90;;;;;;5074139;28;20036;-72
2022/02/27 00:10:26;;;;;;;13.93;4.03;;;3.50;99.90;;;;;;5073130;28;20101;-71
2022/02/27 00:12:51;;;;;;;11.18;4.75;;;3.50;99.90;;;;;;5074160;28;20387;-71
2022/02/27 00:15:17;;;;;;;13.07;4.82;;;3.50;99.90;;;;;;5074018;28;20410;-71
2022/02/27 00:17:43;;;;;;;12.23;4.95;;;3.50;99.90;;;;;;5074083;28;20171;-73
2022/02/27 00:20:10;;;;;;;13.43;4.80;;;3.50;99.90;;;;;;5074229;28;20052;-71
2022/02/27 00:22:36;;;;;;;14.38;5.15;;;3.50;99.90;;;;;;5072278;28;20043;-72
2022/02/27 00:25:02;;;;;;;15.48;5.43;;;3.40;99.90;;;;;;5072138;28;20085;-72
2022/02/27 00:27:27;;;;;;;12.45;5.43;;;3.40;99.90;;;;;;5072639;28;20502;-71
2022/02/27 00:29:53;;;;;;;16.27;4.82;;;3.50;99.90;;;;;;5073679;28;20031;-71
2022/02/27 00:32:19;;;;;;;13.00;4.95;;;3.40;99.90;;;;;;5073405;28;20116;-71
2022/02/27 00:34:44;;;;;;;16.10;5.85;;;3.40;99.90;;;;;;5073825;28;20398;-71
2022/02/27 00:37:10;;;;;;;18.05;5.15;;;3.50;99.90;;;;;;5073511;28;20036;-72
2022/02/27 00:39:35;;;;;;;14.25;5.07;;;3.40;99.90;;;;;;5073671;28;20060;-72
2022/02/27 00:42:01;;;;;;;13.90;6.07;;;3.40;99.90;;;;;;5073315;28;20113;-72
2022/02/27 00:44:26;;;;;;;20.77;5.93;;;3.40;99.90;;;;;;5073482;28;20049;-71
2022/02/27 00:46:52;;;;;;;9.60;5.07;;;3.40;99.90;;;;;;5073292;28;20048;-72
2022/02/27 00:49:18;;;;;;;13.50;5.55;;;3.40;99.90;;;;;;5073621;28;20123;-72
2022/02/27 00:51:44;;;;;;;20.60;5.88;;;3.40;99.90;;;;;;5071905;28;20080;-71
2022/02/27 00:54:10;;;;;;;14.38;4.90;;;3.40;99.90;;;;;;5072010;28;20076;-72
2022/02/27 00:56:36;;;;;;;9.35;4.22;;;3.40;99.90;;;;;;5073254;28;20041;-72
2022/02/27 00:59:03;;;;;;;14.43;5.95;;;3.40;99.90;;;;;;5071965;28;20046;-73
2022/02/27 01:01:29;;;;;;;17.70;5.53;;;3.40;99.90;;;;;;5072957;28;20047;-71
2022/02/27 01:03:55;;;;;;;15.70;5.32;;;3.40;99.90;;;;;;5071939;28;20045;-72
2022/02/27 01:06:21;;;;;;;13.50;5.35;;;3.30;99.90;;;;;;5073198;28;20115;-72
2022/02/27 01:08:46;;;;;;;16.08;6.35;;;3.40;99.90;;;;;;5073204;28;20136;-72
2022/02/27 01:11:12;;;;;;;16.13;5.68;;;3.30;99.90;;;;;;5072844;28;20036;-72
2022/02/27 01:13:38;;;;;;;12.88;5.57;;;3.30;99.90;;;;;;5072960;28;20056;-71
2022/02/27 01:16:06;;;;;;;13.98;6.05;;;3.30;99.90;;;;;;5072653;28;20391;-72
2022/02/27 01:18:34;;;;;;;19.95;6.25;;;3.20;99.90;;;;;;5073146;28;20445;-71
2022/02/27 01:21:00;;;;;;;15.75;6.30;;;3.20;99.90;;;;;;5072536;28;20090;-72
2022/02/27 01:23:26;;;;;;;16.58;6.70;;;3.20;99.90;;;;;;5072844;28;20509;-71
2022/02/27 01:25:51;;;;;;;17.08;5.88;;;3.20;99.90;;;;;;5071739;28;20108;-72
2022/02/27 01:28:17;;;;;;;12.38;5.05;;;3.20;99.90;;;;;;5072548;28;20513;-72
2022/02/27 01:30:43;;;;;;;14.57;6.18;;;3.20;99.90;;;;;;5071311;28;20045;-71
2022/02/27 01:33:09;;;;;;;14.73;6.45;;;3.20;99.90;;;;;;5072373;28;20039;-72
2022/02/27 01:35:35;;;;;;;17.30;6.40;;;3.20;99.90;;;;;;5072061;28;20040;-71
2022/02/27 01:38:01;;;;;;;15.25;5.85;;;3.20;99.90;;;;;;5072444;28;20526;-72
2022/02/27 01:40:27;;;;;;;17.13;6.25;;;3.20;99.90;;;;;;5072396;28;20037;-71
2022/02/27 01:42:53;;;;;;;16.95;6.68;;;3.10;99.90;;;;;;5072019;28;20150;-71
2022/02/27 01:45:18;;;;;;;12.15;6.20;;;3.10;99.90;;;;;;5072442;28;20040;-71
2022/02/27 01:47:44;;;;;;;20.52;7.50;;;3.10;99.90;;;;;;5072445;28;20120;-72
2022/02/27 01:50:10;;;;;;;18.85;6.97;;;3.10;99.90;;;;;;5072306;28;20510;-72
2022/02/27 01:52:36;;;;;;;15.07;7.25;;;3.10;99.90;;;;;;5072005;28;20034;-72
2022/02/27 01:55:03;;;;;;;15.55;6.65;;;3.00;99.90;;;;;;5070924;28;20041;-71
2022/02/27 01:57:29;;;;;;;20.20;6.00;;;3.10;99.90;;;;;;5072035;28;20081;-71
2022/02/27 01:59:55;;;;;;;14.55;6.47;;;3.00;99.90;;;;;;5072322;28;20115;-71
2022/02/27 02:02:21;;;;;;;19.98;6.53;;;3.10;99.90;;;;;;5071969;28;20047;-71
2022/02/27 02:04:47;;;;;;;16.38;6.70;;;3.00;99.90;;;;;;5072235;28;20052;-71
2022/02/27 02:07:13;;;;;;;14.88;6.15;;;3.00;99.90;;;;;;5072006;28;20410;-71
2022/02/27 02:09:38;;;;;;;20.58;7.25;;;3.00;99.90;;;;;;5071991;28;20497;-72
2022/02/27 02:12:06;;;;;;;24.20;8.95;;;2.90;99.90;;;;;;5071482;28;20033;-72
2022/02/27 02:14:32;;;;;;;18.10;7.45;;;3.00;99.90;;;;;;5071747;28;20086;-72
2022/02/27 02:16:58;;;;;;;26.20;8.60;;;3.00;99.90;;;;;;5071969;28;20033;-71
2022/02/27 02:19:26;;;;;;;20.05;9.40;;;2.90;99.90;;;;;;5071999;28;20032;-71
2022/02/27 02:21:54;;;;;;;22.15;8.73;;;2.90;99.90;;;;;;5071618;28;20068;-71
2022/02/27 02:24:21;;;;;;;19.60;8.10;;;2.90;99.90;;;;;;5071830;28;20120;-71
2022/02/27 02:26:47;;;;;;;17.45;8.68;;;2.90;99.90;;;;;;5071613;28;20102;-71
2022/02/27 02:29:15;;;;;;;21.33;7.70;;;2.80;99.90;;;;;;5071710;28;20490;-72
2022/02/27 02:31:41;;;;;;;15.95;7.72;;;2.90;99.90;;;;;;5071643;28;20082;-71
2022/02/27 02:34:08;;;;;;;16.05;7.72;;;2.90;99.90;;;;;;5070652;28;20048;-71
2022/02/27 02:36:35;;;;;;;19.20;7.20;;;2.90;99.90;;;;;;5071528;28;20551;-72
2022/02/27 02:39:06;;;;;;;23.60;8.38;;;2.90;99.90;;;;;;5071690;28;20074;-72
2022/02/27 02:41:32;;;;;;;17.73;8.23;;;2.90;99.90;;;;;;5071702;28;20388;-71
2022/02/27 02:43:58;;;;;;;20.00;9.63;;;2.90;99.90;;;;;;5053698;28;20037;-71
2022/02/27 02:46:24;;;;;;;19.73;9.10;;;2.80;99.90;;;;;;5071040;28;20060;-71
2022/02/27 02:48:49;;;;;;;24.67;9.70;;;2.80;99.90;;;;;;5075797;28;20113;-72
2022/02/27 02:51:16;;;;;;;23.63;10.20;;;2.80;99.90;;;;;;5074156;28;20075;-72
2022/02/27 02:53:42;;;;;;;22.02;10.93;;;2.70;99.90;;;;;;5075587;28;20071;-71
2022/02/27 02:56:09;;;;;;;20.13;10.60;;;2.70;99.90;;;;;;5075641;28;20040;-71
2022/02/27 02:58:40;;;;;;;24.35;12.25;;;2.60;99.90;;;;;;5075727;28;20099;-71
2022/02/27 03:01:07;;;;;;;29.00;11.32;;;2.60;99.90;;;;;;5075369;28;20033;-71
2022/02/27 03:03:32;;;;;;;24.20;10.57;;;2.60;99.90;;;;;;5075619;28;20044;-71
2022/02/27 03:05:58;;;;;;;23.58;11.05;;;2.60;99.90;;;;;;5074164;28;20040;-72
2022/02/27 03:08:23;;;;;;;21.20;11.00;;;2.60;99.90;;;;;;5075323;28;20113;-71
2022/02/27 03:10:49;;;;;;;22.13;11.70;;;2.60;99.90;;;;;;5075362;28;20044;-73
2022/02/27 03:13:15;;;;;;;28.25;10.13;;;2.50;99.90;;;;;;5075425;28;20131;-71
2022/02/27 03:15:40;;;;;;;24.52;10.45;;;2.60;99.90;;;;;;5075141;28;20124;-71
2022/02/27 03:18:06;;;;;;;23.90;12.07;;;2.60;99.90;;;;;;5075256;28;20044;-72
2022/02/27 03:20:31;;;;;;;23.25;11.90;;;2.60;99.90;;;;;;5075091;28;20041;-72
2022/02/27 03:22:57;;;;;;;25.77;12.75;;;2.60;99.90;;;;;;5074737;28;20123;-71
2022/02/27 03:25:23;;;;;;;33.15;12.80;;;2.60;99.90;;;;;;5074955;28;20049;-72
2022/02/27 03:27:49;;;;;;;27.27;13.80;;;2.60;99.90;;;;;;5075087;28;20109;-72
2022/02/27 03:30:15;;;;;;;26.38;13.48;;;2.60;99.90;;;;;;5074942;28;20498;-71
2022/02/27 03:32:46;;;;;;;27.23;13.27;;;2.60;99.90;;;;;;5075018;28;20120;-71
2022/02/27 03:37:42;;;;;;;30.65;14.10;;;2.50;99.90;;;;;;5099037;22;20056;-74
2022/02/27 03:40:08;;;;;;;31.80;14.18;;;2.50;99.90;;;;;;5055966;28;20140;-74
2022/02/27 03:42:34;;;;;;;30.98;15.75;;;2.50;99.90;;;;;;5056361;28;20033;-74
2022/02/27 03:44:59;;;;;;;31.52;16.23;;;2.50;99.90;;;;;;5056967;28;20041;-74
2022/02/27 03:47:25;;;;;;;29.73;14.32;;;2.40;99.90;;;;;;5056533;28;20623;-74
2022/02/27 03:49:51;;;;;;;29.58;13.38;;;2.40;99.90;;;;;;5039628;28;20045;-74
2022/02/27 03:52:17;;;;;;;35.42;14.25;;;2.40;99.90;;;;;;5056285;28;20072;-74
2022/02/27 03:54:43;;;;;;;34.15;13.35;;;2.40;99.90;;;;;;5056354;28;20410;-74
2022/02/27 03:57:09;;;;;;;28.60;13.48;;;2.40;99.90;;;;;;5056364;28;20565;-74
2022/02/27 03:59:34;;;;;;;28.10;14.15;;;2.40;99.90;;;;;;5055940;28;20111;-74
2022/02/27 04:02:00;;;;;;;26.00;13.65;;;2.40;99.90;;;;;;5056112;28;20071;-74
2022/02/27 04:04:25;;;;;;;30.05;17.60;;;2.40;99.90;;;;;;5056554;28;20048;-74
2022/02/27 04:06:51;;;;;;;34.72;17.05;;;2.40;99.90;;;;;;5056215;28;20047;-74
2022/02/27 04:09:16;;;;;;;30.40;16.75;;;2.30;99.90;;;;;;5056217;28;20045;-74
2022/02/27 04:11:42;;;;;;;42.58;19.63;;;2.30;99.90;;;;;;5055603;28;20059;-74
2022/02/27 04:14:07;;;;;;;42.17;20.42;;;2.30;99.90;;;;;;5056046;28;20036;-74
2022/02/27 04:16:33;;;;;;;41.05;21.40;;;2.30;99.90;;;;;;5056331;28;20080;-74
2022/02/27 04:18:59;;;;;;;33.97;19.13;;;2.20;99.90;;;;;;5056262;28;20045;-74
2022/02/27 04:21:24;;;;;;;33.28;19.35;;;2.20;99.90;;;;;;5055695;28;20072;-74
2022/02/27 04:23:50;;;;;;;36.03;17.52;;;2.20;99.90;;;;;;5055954;28;20040;-74
2022/02/27 04:26:16;;;;;;;32.65;17.63;;;2.20;99.90;;;;;;5055708;28;20051;-74
2022/02/27 04:28:41;;;;;;;29.70;16.05;;;2.20;99.90;;;;;;5056102;28;20044;-74
2022/02/27 04:31:07;;;;;;;32.58;15.57;;;2.20;99.90;;;;;;5055522;28;20498;-74
2022/02/27 04:33:32;;;;;;;29.13;15.00;;;2.20;99.90;;;;;;5055740;28;20044;-73
2022/02/27 04:35:58;;;;;;;29.10;14.32;;;2.20;99.90;;;;;;5038861;28;20048;-74
2022/02/27 04:38:23;;;;;;;31.70;14.95;;;2.20;99.90;;;;;;5055710;28;20454;-74
2022/02/27 04:40:49;;;;;;;33.08;15.25;;;2.20;99.90;;;;;;5055372;28;20433;-73
2022/02/27 04:43:15;;;;;;;22.75;14.40;;;2.30;99.90;;;;;;5039271;28;20128;-74
2022/02/27 04:45:41;;;;;;;31.70;14.70;;;2.20;99.90;;;;;;5073455;28;20520;-73
2022/02/27 04:48:06;;;;;;;23.83;13.60;;;2.20;99.90;;;;;;5055480;28;20037;-73
2022/02/27 04:50:33;;;;;;;30.27;14.07;;;2.20;99.90;;;;;;5055698;28;20037;-74
2022/02/27 04:52:58;;;;;;;25.50;12.77;;;2.10;99.90;;;;;;5055120;28;20044;-73
2022/02/27 04:55:24;;;;;;;33.72;15.05;;;2.10;99.90;;;;;;5055145;28;20401;-74
2022/02/27 04:57:49;;;;;;;28.65;15.45;;;2.10;99.90;;;;;;5055329;28;20090;-73
2022/02/27 05:00:15;;;;;;;32.95;16.33;;;2.10;99.90;;;;;;5054839;28;20037;-74
2022/02/27 05:02:41;;;;;;;35.00;17.20;;;2.00;99.90;;;;;;5054868;28;20123;-74
2022/02/27 05:05:07;;;;;;;31.70;17.20;;;2.10;99.90;;;;;;5055241;28;20056;-74
2022/02/27 05:07:33;;;;;;;31.40;15.88;;;2.00;99.90;;;;;;5055000;28;20056;-73
2022/02/27 05:10:00;;;;;;;30.92;17.33;;;2.00;99.90;;;;;;5054521;28;20036;-74
2022/02/27 05:12:26;;;;;;;32.47;15.77;;;1.90;99.90;;;;;;5054704;28;20048;-74
2022/02/27 05:14:52;;;;;;;32.25;17.52;;;1.90;99.90;;;;;;5055015;28;20048;-74
2022/02/27 05:17:17;;;;;;;36.90;17.88;;;1.90;99.90;;;;;;5054860;28;20040;-74
2022/02/27 05:19:43;;;;;;;33.30;17.80;;;1.90;99.90;;;;;;5054750;28;20043;-74
2022/02/27 05:22:08;;;;;;;36.45;19.60;;;1.90;99.90;;;;;;5054756;28;20041;-73
2022/02/27 05:24:34;;;;;;;36.20;20.60;;;1.90;99.90;;;;;;5072621;28;20526;-74
2022/02/27 05:26:59;;;;;;;41.70;21.10;;;1.90;99.90;;;;;;5054663;28;20040;-74
2022/02/27 05:29:25;;;;;;;37.15;18.08;;;1.90;99.90;;;;;;5054891;28;20042;-73
2022/02/27 05:31:50;;;;;;;31.08;18.23;;;1.80;99.90;;;;;;5054607;28;20556;-74
2022/02/27 05:34:16;;;;;;;30.17;16.92;;;1.80;99.90;;;;;;5054413;28;20040;-73
2022/02/27 05:36:41;;;;;;;28.80;15.75;;;1.90;99.90;;;;;;5054569;28;20040;-74
2022/02/27 05:39:07;;;;;;;31.30;15.10;;;1.80;99.90;;;;;;5037831;28;20040;-74
2022/02/27 05:41:33;;;;;;;25.27;14.23;;;1.80;99.90;;;;;;5054212;28;20080;-74
2022/02/27 05:43:58;;;;;;;26.02;14.25;;;1.80;99.90;;;;;;5054559;28;20068;-74
2022/02/27 05:46:24;;;;;;;26.92;12.85;;;1.80;99.90;;;;;;5054327;28;20040;-74
2022/02/27 05:48:50;;;;;;;22.88;13.10;;;1.80;99.90;;;;;;5054621;28;20032;-73
2022/02/27 05:51:16;;;;;;;29.23;14.75;;;1.80;99.90;;;;;;5037635;28;20040;-73
2022/02/27 05:53:42;;;;;;;23.75;13.45;;;1.80;99.90;;;;;;5054452;28;20040;-73
2022/02/27 05:56:07;;;;;;;18.85;11.50;;;1.80;99.90;;;;;;5054076;28;20041;-74
2022/02/27 05:58:34;;;;;;;26.90;12.43;;;1.80;99.90;;;;;;5054249;28;20040;-74
2022/02/27 06:01:01;;;;;;;20.38;11.20;;;1.80;99.90;;;;;;5053298;28;20123;-73
2022/02/27 06:03:27;;;;;;;25.00;11.27;;;1.80;99.90;;;;;;5054119;28;20037;-74
2022/02/27 06:05:53;;;;;;;18.95;10.18;;;1.80;99.90;;;;;;5054001;28;20135;-74
2022/02/27 06:08:19;;;;;;;22.42;10.57;;;1.80;99.90;;;;;;5072267;28;20040;-73
2022/02/27 06:10:45;;;;;;;19.52;9.82;;;1.80;99.90;;;;;;5054235;28;20570;-74
2022/02/27 06:13:10;;;;;;;21.25;9.18;;;1.80;99.90;;;;;;5053746;28;20540;-74
2022/02/27 06:15:36;;;;;;;22.42;11.23;;;1.80;99.90;;;;;;5053672;28;20036;-74
2022/02/27 06:18:02;;;;;;;21.45;9.65;;;1.80;99.90;;;;;;5054065;28;20046;-74
2022/02/27 06:20:28;;;;;;;18.83;10.15;;;1.70;99.90;;;;;;5053814;28;20441;-74
2022/02/27 06:22:54;;;;;;;21.77;10.10;;;1.70;99.90;;;;;;5053195;28;20036;-73
2022/02/27 06:25:20;;;;;;;18.42;8.13;;;1.70;99.90;;;;;;5037205;28;20044;-74
2022/02/27 06:27:47;;;;;;;19.40;9.52;;;1.70;99.90;;;;;;5053711;28;20522;-74
2022/02/27 06:30:14;;;;;;;16.95;9.07;;;1.70;99.90;;;;;;5037124;28;20055;-73
2022/02/27 06:32:41;;;;;;;17.77;9.02;;;1.70;99.90;;;;;;5053328;28;20413;-74
2022/02/27 06:35:08;;;;;;;22.05;9.68;;;1.70;99.90;;;;;;5053822;28;20498;-74
2022/02/27 06:37:34;;;;;;;23.23;9.52;;;1.80;99.90;;;;;;5053509;28;20064;-73
2022/02/27 06:39:59;;;;;;;19.02;10.60;;;1.80;99.90;;;;;;5071765;28;20041;-74
2022/02/27 06:42:25;;;;;;;18.13;10.05;;;1.80;99.90;;;;;;5053292;28;20481;-74
2022/02/27 06:44:51;;;;;;;18.73;10.90;;;1.70;99.90;;;;;;5053587;28;20044;-74
2022/02/27 06:47:16;;;;;;;21.63;11.10;;;1.80;99.90;;;;;;5071704;28;20468;-74
2022/02/27 06:49:42;;;;;;;18.20;11.32;;;1.70;99.90;;;;;;5071451;28;20072;-73
2022/02/27 06:52:07;;;;;;;25.77;10.00;;;1.80;99.90;;;;;;5053557;28;20105;-74
2022/02/27 06:54:33;;;;;;;20.25;10.73;;;1.80;99.90;;;;;;5053351;28;20033;-73
2022/02/27 06:56:58;;;;;;;22.55;10.77;;;1.80;99.90;;;;;;5037101;28;20037;-73
2022/02/27 06:59:24;;;;;;;25.98;12.02;;;1.80;99.90;;;;;;5053392;28;20040;-73
2022/02/27 07:01:49;;;;;;;21.73;12.48;;;1.80;99.90;;;;;;5053086;28;20079;-74
2022/02/27 07:04:15;;;;;;;23.48;12.95;;;1.80;99.90;;;;;;5053223;28;20040;-73
2022/02/27 07:06:41;;;;;;;26.63;12.85;;;1.90;99.90;;;;;;5053337;28;20036;-74
2022/02/27 07:09:07;;;;;;;31.10;13.95;;;2.00;99.90;;;;;;5053075;28;20032;-74
2022/02/27 07:11:33;;;;;;;30.00;12.82;;;2.00;99.90;;;;;;5070981;28;20120;-73
2022/02/27 07:13:58;;;;;;;25.60;11.60;;;2.10;99.90;;;;;;5053186;28;20173;-74
2022/02/27 07:16:24;;;;;;;21.55;11.38;;;2.20;99.90;;;;;;5071285;28;20111;-74
2022/02/27 07:18:50;;;;;;;27.60;10.55;;;2.30;99.90;;;;;;5053463;28;20052;-74
2022/02/27 07:21:16;;;;;;;24.42;10.38;;;2.40;99.90;;;;;;5070926;28;20037;-74
2022/02/27 07:23:42;;;;;;;18.75;9.85;;;2.50;99.90;;;;;;5036638;28;20064;-76
2022/02/27 07:26:08;;;;;;;24.65;9.95;;;2.60;99.90;;;;;;5053019;28;20137;-76
2022/02/27 07:28:33;;;;;;;22.38;9.75;;;2.70;99.90;;;;;;5053089;28;20051;-76
2022/02/27 07:30:59;;;;;;;17.00;9.68;;;2.80;99.90;;;;;;5053191;28;20044;-76
2022/02/27 07:33:25;;;;;;;21.27;9.07;;;2.90;99.90;;;;;;5055463;28;20036;-76
2022/02/27 07:35:51;;;;;;;19.02;10.48;;;2.90;99.90;;;;;;5056526;28;20096;-76
2022/02/27 07:38:16;;;;;;;21.58;10.48;;;3.00;99.90;;;;;;5056896;28;20033;-76
2022/02/27 07:40:42;;;;;;;28.35;10.00;;;3.10;99.90;;;;;;5056969;28;20086;-76
2022/02/27 07:43:07;;;;;;;19.33;9.75;;;3.20;99.90;;;;;;5039911;28;20119;-75
2022/02/27 07:45:33;;;;;;;17.55;9.68;;;3.30;99.90;;;;;;5056925;28;20047;-75
2022/02/27 07:47:58;;;;;;;18.55;8.13;;;3.30;99.90;;;;;;5056756;28;20040;-76
2022/02/27 07:50:24;;;;;;;21.63;9.32;;;3.40;99.90;;;;;;5056771;28;20584;-76
2022/02/27 07:52:50;;;;;;;13.30;7.72;;;3.40;99.90;;;;;;5056325;28;20067;-76
2022/02/27 07:55:18;;;;;;;16.60;7.22;;;3.50;99.90;;;;;;5056442;28;20179;-76
2022/02/27 07:57:44;;;;;;;15.85;7.30;;;3.70;99.90;;;;;;5056369;28;20037;-76
2022/02/27 08:00:10;;;;;;;15.85;6.68;;;3.70;99.90;;;;;;5055483;28;20077;-76
2022/02/27 08:02:35;;;;;;;14.00;6.93;;;3.80;99.90;;;;;;5039248;28;20127;-76
2022/02/27 08:05:01;;;;;;;18.88;7.78;;;3.90;99.90;;;;;;5056218;28;20040;-76
2022/02/27 08:07:26;;;;;;;14.25;6.55;;;4.00;99.90;;;;;;5056034;28;20574;-76
2022/02/27 08:09:52;;;;;;;14.35;6.45;;;4.10;99.90;;;;;;5056265;28;20510;-76
2022/02/27 08:12:17;;;;;;;11.18;6.78;;;4.30;99.90;;;;;;5055836;28;20036;-76
2022/02/27 08:14:46;;;;;;;12.63;6.15;;;4.40;99.90;;;;;;5056031;28;20063;-76
2022/02/27 08:17:13;;;;;;;15.82;6.13;;;4.60;99.90;;;;;;5055977;28;20120;-76
2022/02/27 08:19:39;;;;;;;16.95;5.97;;;4.70;99.90;;;;;;5056046;28;20032;-76
2022/02/27 08:22:04;;;;;;;24.55;6.22;;;4.90;99.90;;;;;;5055612;28;20101;-76
2022/02/27 08:24:30;;;;;;;12.93;6.25;;;5.10;99.90;;;;;;5074001;28;20045;-76
2022/02/27 08:26:56;;;;;;;26.27;7.15;;;5.10;99.90;;;;;;5073829;28;20119;-76
2022/02/27 08:29:22;;;;;;;16.15;6.35;;;5.20;99.90;;;;;;5055894;28;20045;-76
2022/02/27 08:31:48;;;;;;;15.80;6.30;;;5.20;99.90;;;;;;5055686;28;20043;-76
2022/02/27 08:34:13;;;;;;;11.55;5.45;;;5.20;99.90;;;;;;5055977;28;20135;-75
2022/02/27 08:36:40;;;;;;;12.25;5.70;;;5.30;99.90;;;;;;5039173;28;20086;-75
2022/02/27 08:39:06;;;;;;;12.25;6.28;;;5.40;99.90;;;;;;5055662;28;20449;-76
2022/02/27 08:41:32;;;;;;;16.40;6.00;;;5.40;99.90;;;;;;5055393;28;20037;-76
2022/02/27 08:43:57;;;;;;;11.57;6.28;;;5.50;99.90;;;;;;5038162;28;20085;-75
2022/02/27 08:46:23;;;;;;;14.70;6.53;;;5.60;99.90;;;;;;5073291;28;20123;-75
2022/02/27 08:48:49;;;;;;;10.88;5.82;;;5.70;99.90;;;;;;5055652;28;20683;-73
2022/02/27 08:51:15;;;;;;;10.80;6.22;;;5.60;99.90;;;;;;5055006;28;20515;-76
2022/02/27 08:53:41;;;;;;;12.15;5.82;;;5.60;99.90;;;;;;5055681;28;20119;-76
2022/02/27 08:56:06;;;;;;;13.80;7.00;;;5.50;99.90;;;;;;5055095;28;20067;-76
2022/02/27 08:58:32;;;;;;;16.80;7.00;;;5.60;99.90;;;;;;5055622;28;20094;-75
2022/02/27 09:00:58;;;;;;;10.18;6.05;;;5.50;99.90;;;;;;5054854;28;20044;-75
2022/02/27 09:03:27;;;;;;;11.93;5.95;;;5.50;99.90;;;;;;5072966;28;20565;-76
2022/02/27 09:05:52;;;;;;;12.95;6.65;;;5.50;99.90;;;;;;5055330;28;20040;-75
2022/02/27 09:08:19;;;;;;;12.90;5.47;;;5.50;99.90;;;;;;5055090;28;20044;-75
2022/02/27 09:10:45;;;;;;;10.98;5.88;;;5.40;99.90;;;;;;5055076;28;20127;-75
2022/02/27 09:13:12;;;;;;;15.40;7.78;;;5.40;99.90;;;;;;5054126;28;20048;-75
2022/02/27 09:15:37;;;;;;;14.40;5.93;;;5.40;99.90;;;;;;5054843;28;20402;-76
2022/02/27 09:18:03;;;;;;;14.25;6.15;;;5.40;99.90;;;;;;5054825;28;20067;-76
2022/02/27 09:20:28;;;;;;;20.00;5.68;;;5.50;99.90;;;;;;5054892;28;20033;-76
2022/02/27 09:22:54;;;;;;;12.48;5.95;;;5.40;99.90;;;;;;5054635;28;20032;-76
2022/02/27 09:25:20;;;;;;;14.77;6.70;;;5.50;99.90;;;;;;5054626;28;20063;-76
2022/02/27 09:27:45;;;;;;;12.00;6.60;;;5.50;99.90;;;;;;5038090;28;20093;-76
2022/02/27 09:30:14;;;;;;;13.98;6.47;;;5.50;99.90;;;;;;5038194;28;20051;-76
2022/02/27 09:32:40;;;;;;;12.00;5.25;;;5.50;99.90;;;;;;5054647;28;20108;-77
2022/02/27 09:35:06;;;;;;;10.63;5.55;;;5.50;99.90;;;;;;5037838;28;20127;-75
2022/02/27 09:37:35;;;;;;;13.13;6.13;;;5.40;99.90;;;;;;5064745;22;20065;-71
2022/02/27 09:40:02;;;;;;;14.27;5.70;;;5.40;99.90;;;;;;5072185;28;20044;-71
2022/02/27 09:42:33;;;;;;;11.75;5.25;;;5.40;99.90;;;;;;5054473;28;20037;-72
2022/02/27 09:44:59;;;;;;;10.77;5.25;;;5.50;99.90;;;;;;5054364;28;20048;-72
2022/02/27 09:47:26;;;;;;;13.82;6.10;;;5.50;99.90;;;;;;5072314;28;20037;-72
2022/02/27 09:49:53;;;;;;;10.60;5.82;;;5.60;99.90;;;;;;5072254;28;20070;-72
2022/02/27 09:52:20;;;;;;;14.23;5.22;;;5.60;99.90;;;;;;5053991;28;20041;-71
2022/02/27 09:54:48;;;;;;;9.73;5.05;;;5.60;99.90;;;;;;5053960;28;20040;-72
2022/02/27 09:57:18;;;;;;;9.20;5.57;;;5.60;99.90;;;;;;5054030;28;20041;-73
2022/02/27 09:59:44;;;;;;;12.45;5.60;;;5.60;99.90;;;;;;5053951;28;20080;-72
2022/02/27 10:02:11;;;;;;;11.93;6.03;;;5.70;99.90;;;;;;5069651;28;20087;-71
2022/02/27 10:04:39;;;;;;;10.40;5.72;;;5.70;99.90;;;;;;5033859;28;20136;-70
2022/02/27 10:07:11;;;;;;;12.68;6.47;;;5.80;99.90;;;;;;5036294;28;20541;-71
2022/02/27 10:09:38;;;;;;;10.68;5.63;;;5.80;99.90;;;;;;5034379;28;20411;-71
2022/02/27 10:12:20;;;;;;;12.60;5.65;;;5.90;99.90;;;;;;5033960;28;20385;-71
2022/02/27 10:15:10;;;;;;;11.13;5.18;;;5.90;99.90;;;;;;5033989;28;20048;-72
2022/02/27 10:17:41;;;;;;;11.80;5.10;;;6.00;99.90;;;;;;5033821;28;20049;-72
2022/02/27 10:20:12;;;;;;;15.82;4.90;;;6.00;99.90;;;;;;5017057;28;20036;-72
2022/02/27 10:22:41;;;;;;;8.00;5.05;;;6.00;99.90;;;;;;5051884;28;20406;-71
2022/02/27 10:25:19;;;;;;;11.52;5.40;;;6.00;99.90;;;;;;5017674;28;20040;-71
2022/02/27 10:27:49;;;;;;;13.93;6.10;;;6.10;99.90;;;;;;5051550;28;20048;-73
2022/02/27 10:30:17;;;;;;;8.35;5.15;;;6.10;99.90;;;;;;5016057;28;20137;-71
2022/02/27 10:32:50;;;;;;;10.27;5.88;;;6.10;99.90;;;;;;5031516;28;20410;-70
2022/02/27 10:35:52;;;;;;;9.27;5.80;;;6.10;99.90;;;;;;5032241;28;20033;-71
2022/02/27 10:38:43;;;;;;;12.40;5.43;;;6.10;99.90;;;;;;5032190;28;20043;-70
2022/02/27 10:41:12;;;;;;;11.27;5.50;;;6.10;99.90;;;;;;5050608;28;20037;-69
2022/02/27 10:43:43;;;;;;;14.50;5.53;;;6.20;99.90;;;;;;5017068;28;20033;-71
2022/02/27 10:46:10;;;;;;;9.68;5.03;;;6.20;99.90;;;;;;5051460;28;20033;-72
2022/02/27 10:48:36;;;;;;;10.32;4.88;;;6.20;99.90;;;;;;5051292;28;20449;-71
2022/02/27 10:51:06;;;;;;;9.98;4.72;;;6.20;99.90;;;;;;5051346;28;20115;-70
2022/02/27 10:53:36;;;;;;;10.07;5.43;;;6.30;99.90;;;;;;5051443;28;20048;-71
2022/02/27 10:56:08;;;;;;;11.32;4.60;;;6.30;99.90;;;;;;5051257;28;20517;-71
2022/02/27 10:58:41;;;;;;;10.13;4.78;;;6.30;99.90;;;;;;5033299;28;20041;-70
2022/02/27 11:01:18;;;;;;;12.80;5.18;;;6.30;99.90;;;;;;5016555;28;20044;-70
2022/02/27 11:03:44;;;;;;;7.63;4.22;;;6.30;99.90;;;;;;5016809;28;20052;-71
2022/02/27 11:06:10;;;;;;;14.65;5.90;;;6.30;99.90;;;;;;5050910;28;20033;-71
2022/02/27 11:08:36;;;;;;;9.60;4.80;;;6.40;99.90;;;;;;5053845;28;20029;-71
2022/02/27 11:11:02;;;;;;;8.07;4.93;;;6.40;99.40;;;;;;5037173;28;20525;-71
2022/02/27 11:13:28;;;;;;;12.75;6.75;;;6.40;99.30;;;;;;5021066;28;20036;-72
2022/02/27 11:15:54;;;;;;;7.28;4.43;;;6.40;99.40;;;;;;5037188;28;20106;-70
2022/02/27 11:18:20;;;;;;;11.27;4.57;;;6.40;99.50;;;;;;5037070;28;20055;-71
2022/02/27 11:20:47;;;;;;;8.77;4.80;;;6.50;98.80;;;;;;5055213;28;20045;-69
2022/02/27 11:23:14;;;;;;;11.95;5.35;;;6.50;99.00;;;;;;5054897;28;20029;-69
2022/02/27 11:25:40;;;;;;;8.82;4.93;;;6.50;98.40;;;;;;5037043;28;20124;-71
2022/02/27 11:28:06;;;;;;;12.48;5.15;;;6.50;98.50;;;;;;5037145;28;20558;-70
2022/02/27 11:30:38;;;;;;;9.57;4.47;;;6.60;99.10;;;;;;5029349;28;20087;-73
2022/02/27 11:33:12;;;;;;;11.88;4.78;;;6.60;98.60;;;;;;5028294;28;20037;-72
2022/02/27 11:35:52;;;;;;;10.95;5.05;;;6.70;98.80;;;;;;5020377;28;20041;-72
2022/02/27 11:38:30;;;;;;;15.73;5.32;;;6.70;98.10;;;;;;5036923;28;20063;-72
2022/02/27 11:41:10;;;;;;;7.93;4.80;;;6.70;97.30;;;;;;5019932;28;20045;-72
2022/02/27 11:43:44;;;;;;;8.48;5.38;;;6.70;97.70;;;;;;5036853;28;20060;-71
2022/02/27 11:46:15;;;;;;;10.25;5.45;;;6.70;98.30;;;;;;5019962;28;20120;-72
2022/02/27 11:49:04;;;;;;;11.73;5.07;;;6.80;98.20;;;;;;5036768;28;20127;-71
2022/02/27 11:51:36;;;;;;;14.25;5.72;;;6.80;98.00;;;;;;5035709;28;20037;-71
2022/02/27 11:54:12;;;;;;;13.02;5.18;;;6.90;98.30;;;;;;5032813;28;20195;-72
2022/02/27 11:56:44;;;;;;;9.13;5.13;;;6.90;97.30;;;;;;5053519;28;20051;-71
2022/02/27 11:59:10;;;;;;;10.43;5.82;;;6.90;97.50;;;;;;5036314;28;20108;-74
2022/02/27 12:01:48;;;;;;;10.65;5.28;;;6.90;96.60;;;;;;5019396;28;20041;-71
2022/02/27 12:04:20;;;;;;;10.15;5.18;;;6.90;96.50;;;;;;5054339;28;20104;-71
2022/02/27 12:07:06;;;;;;;13.18;5.25;;;7.00;96.50;;;;;;5053860;28;20529;-72
2022/02/27 12:10:00;;;;;;;10.75;5.50;;;7.00;95.80;;;;;;5053852;28;20394;-72
2022/02/27 12:12:34;;;;;;;;;;;7.10;95.80;;;;;;5032943;28;20044;-72
2022/02/27 12:15:19;;;;;;;;;;;7.10;96.30;;;;;;5054384;28;19982;-72
2022/02/27 12:18:01;;;;;;;9.57;5.35;;;7.10;95.10;;;;;;5035739;28;19916;-72
2022/02/27 12:20:46;;;;;;;8.93;4.85;;;7.10;96.30;;;;;;5052254;28;20087;-73
2022/02/27 12:23:38;;;;;;;8.52;4.65;;;7.20;96.50;;;;;;5053519;28;20052;-72
2022/02/27 12:26:09;;;;;;;10.18;4.78;;;7.20;95.70;;;;;;5035626;28;20048;-73
2022/02/27 12:28:52;;;;;;;8.55;4.88;;;7.30;94.60;;;;;;5019428;28;20044;-72
2022/02/27 12:31:32;;;;;;;11.27;4.85;;;7.20;93.10;;;;;;5035318;28;20052;-72
2022/02/27 12:34:09;;;;;;;8.77;4.68;;;7.30;93.30;;;;;;5036080;28;20376;-71
2022/02/27 12:36:38;;;;;;;6.63;4.80;;;7.30;93.40;;;;;;5019061;28;20056;-71
2022/02/27 12:39:07;;;;;;;9.50;4.35;;;7.30;94.00;;;;;;5036109;28;20048;-71
2022/02/27 12:41:37;;;;;;;7.15;3.97;;;7.40;93.50;;;;;;5035304;28;20048;-71
2022/02/27 12:44:04;;;;;;;8.05;3.90;;;7.40;91.90;;;;;;5035456;28;20045;-71
2022/02/27 12:46:30;;;;;;;11.05;5.07;;;7.40;92.10;;;;;;5035513;28;20080;-71
2022/02/27 12:51:40;;;;;;;9.73;3.75;;;7.40;92.80;;;;;;5035009;28;20052;-72